Time;durP1;ratioP1;P1;durP2;ratioP2;P2;SDS_P1;SDS_P2;PMS_P1;PMS_P2;Temp;Humidity;BMP_temperature;BMP_pressure;BME280_temperature;BME280_humidity;BME280_pressure;Samples;Min_cycle;Max_cycle;Signal;HPM_P1;HPM_P2
2022/02/02 00:00:33;;;;;;;32.77;7.27;;;8.10;99.90;;;;;;5072647;28;20490;-80
2022/02/02 00:03:06;;;;;;;28.80;6.07;;;8.20;99.90;;;;;;5071469;28;20462;-80
2022/02/02 00:05:38;;;;;;;22.13;5.20;;;8.20;99.90;;;;;;5067338;28;20452;-80
2022/02/02 00:08:09;;;;;;;18.83;5.60;;;8.20;99.90;;;;;;5073969;28;20471;-81
2022/02/02 00:13:36;;;;;;;34.33;7.10;;;8.10;99.90;;;;;;5067087;28;20439;-80
2022/02/02 00:16:10;;;;;;;34.60;6.50;;;8.20;99.90;;;;;;5052631;28;20843;-80
2022/02/02 00:18:49;;;;;;;23.20;7.43;;;8.20;99.90;;;;;;5054569;28;20534;-80
2022/02/02 00:21:22;;;;;;;28.00;6.20;;;8.20;99.90;;;;;;5059069;28;20482;-79
2022/02/02 00:23:52;;;;;;;31.37;6.57;;;8.20;99.90;;;;;;5062160;28;20459;-79
2022/02/02 00:26:24;;;;;;;32.20;8.67;;;8.20;99.90;;;;;;5072680;28;20450;-79
2022/02/02 00:28:58;;;;;;;21.60;5.97;;;8.20;99.90;;;;;;5071849;28;20498;-79
2022/02/02 00:31:34;;;;;;;35.80;7.23;;;8.20;99.90;;;;;;5067267;28;20468;-79
2022/02/02 00:34:04;;;;;;;24.43;7.33;;;8.20;99.90;;;;;;5054653;28;20486;-77
2022/02/02 00:36:40;;;;;;;22.63;7.37;;;8.20;99.90;;;;;;5065872;28;20542;-77
2022/02/02 00:39:07;;;;;;;25.53;5.87;;;8.20;99.90;;;;;;5068846;28;20474;-78
2022/02/02 00:41:34;;;;;;;20.70;6.03;;;8.20;99.90;;;;;;5070180;28;20516;-78
2022/02/02 00:44:03;;;;;;;24.67;5.73;;;8.10;99.90;;;;;;5068726;28;20947;-78
2022/02/02 00:46:30;;;;;;;25.70;6.30;;;8.20;99.90;;;;;;5059035;28;20879;-78
2022/02/02 00:49:02;;;;;;;23.70;6.07;;;8.20;99.90;;;;;;5069452;28;20503;-78
2022/02/02 00:51:36;;;;;;;20.63;5.13;;;8.20;99.90;;;;;;5066039;28;20483;-78
2022/02/02 00:54:03;;;;;;;25.30;6.10;;;8.20;99.90;;;;;;5056642;28;20448;-79
2022/02/02 00:56:30;;;;;;;22.63;6.93;;;8.10;99.90;;;;;;5056433;28;20453;-79
2022/02/02 00:58:57;;;;;;;23.13;6.20;;;8.00;99.90;;;;;;5055818;28;20464;-79
2022/02/02 01:01:26;;;;;;;32.07;7.17;;;8.00;99.90;;;;;;5047608;28;20486;-79
2022/02/02 01:03:52;;;;;;;22.23;4.63;;;8.00;99.90;;;;;;5055254;28;20563;-79
2022/02/02 01:06:21;;;;;;;18.83;5.20;;;7.90;99.90;;;;;;5056464;28;20448;-79
2022/02/02 01:09:10;;;;;;;27.50;5.07;;;7.90;99.90;;;;;;5056378;28;20585;-78
2022/02/02 01:17:44;;;;;;;32.03;6.57;;;7.90;99.90;;;;;;5056259;28;20522;-79
2022/02/02 01:20:29;;;;;;;20.43;6.50;;;7.90;99.90;;;;;;5055638;28;20571;-79
2022/02/02 01:28:26;;;;;;;27.13;6.50;;;7.90;99.90;;;;;;5044209;28;20819;-80
2022/02/02 01:30:53;;;;;;;21.80;5.30;;;7.90;99.90;;;;;;5043401;28;20987;-79
2022/02/02 01:33:22;;;;;;;23.17;4.63;;;7.90;99.90;;;;;;5044802;28;20459;-79
2022/02/02 01:35:49;;;;;;;22.97;6.13;;;7.90;99.90;;;;;;5036431;28;20815;-78
2022/02/02 01:38:16;;;;;;;19.70;5.80;;;7.90;99.90;;;;;;5035724;28;20509;-79
2022/02/02 01:40:47;;;;;;;26.27;5.40;;;7.90;99.90;;;;;;5038957;28;20498;-79
2022/02/02 01:43:18;;;;;;;31.23;5.43;;;7.90;99.90;;;;;;5036646;28;20460;-80
2022/02/02 01:45:49;;;;;;;24.03;5.60;;;7.90;99.90;;;;;;5050142;28;20488;-79
2022/02/02 01:48:24;;;;;;;39.93;8.13;;;7.90;99.90;;;;;;5056993;28;20456;-80
2022/02/02 01:51:04;;;;;;;23.50;6.10;;;7.90;99.90;;;;;;5050871;28;20473;-80
2022/02/02 01:53:42;;;;;;;28.13;7.27;;;7.90;99.90;;;;;;5055265;28;20443;-78
2022/02/02 01:56:12;;;;;;;31.50;5.93;;;7.90;99.90;;;;;;5042464;28;20522;-80
2022/02/02 01:59:00;;;;;;;27.77;6.67;;;7.90;99.90;;;;;;5036492;28;20455;-80
2022/02/02 02:01:28;;;;;;;29.40;6.80;;;7.90;99.90;;;;;;5052072;28;20468;-80
2022/02/02 02:03:54;;;;;;;30.20;8.00;;;7.90;99.90;;;;;;5054037;28;20456;-79
2022/02/02 02:06:23;;;;;;;28.77;6.20;;;7.80;99.90;;;;;;5055620;28;21185;-79
2022/02/02 02:08:50;;;;;;;23.77;5.00;;;7.80;99.90;;;;;;5055213;28;20476;-80
2022/02/02 02:11:19;;;;;;;39.77;7.70;;;7.80;99.90;;;;;;5054701;28;20447;-79
2022/02/02 02:16:42;;;;;;;26.57;6.20;;;7.80;99.90;;;;;;5052148;28;20440;-80
2022/02/02 02:19:09;;;;;;;30.63;6.87;;;7.80;99.90;;;;;;5055345;28;20851;-80
2022/02/02 02:21:38;;;;;;;27.20;6.43;;;7.80;99.90;;;;;;5054352;28;20567;-80
2022/02/02 02:24:07;;;;;;;29.83;7.80;;;7.70;99.90;;;;;;5054329;28;20457;-80
2022/02/02 02:26:39;;;;;;;33.00;7.10;;;7.80;99.90;;;;;;5055180;28;20474;-79
2022/02/02 02:29:20;;;;;;;25.47;6.40;;;7.80;99.90;;;;;;5055089;28;20487;-80
2022/02/02 02:31:51;;;;;;;33.07;7.17;;;7.80;99.90;;;;;;5054631;28;20440;-79
2022/02/02 02:34:32;;;;;;;35.77;6.87;;;7.70;99.90;;;;;;5056857;28;20456;-80
2022/02/02 02:37:16;;;;;;;26.37;6.37;;;7.60;99.90;;;;;;5055740;28;20443;-80
2022/02/02 02:39:57;;;;;;;24.37;6.10;;;7.60;99.90;;;;;;5052661;22;20522;-81
2022/02/02 02:56:14;;;;;;;20.73;5.80;;;7.70;99.90;;;;;;5026686;28;20433;-83
2022/02/02 02:58:46;;;;;;;29.33;6.20;;;7.80;99.90;;;;;;5027776;28;20466;-82
2022/02/02 03:01:22;;;;;;;31.50;6.77;;;7.80;99.90;;;;;;5027399;28;20494;-82
2022/02/02 03:31:19;;;;;;;34.40;7.50;;;7.70;99.90;;;;;;5005236;28;20491;-81
2022/02/02 03:55:46;;;;;;;22.37;6.17;;;7.60;99.90;;;;;;5024172;28;20918;-80
2022/02/02 03:58:25;;;;;;;33.13;7.20;;;7.60;99.90;;;;;;5022301;28;20576;-81
2022/02/02 04:01:13;;;;;;;31.03;7.13;;;7.70;99.90;;;;;;5022769;28;20480;-80
2022/02/02 04:03:56;;;;;;;26.73;8.33;;;7.70;99.90;;;;;;5022901;28;20452;-80
2022/02/02 04:06:25;;;;;;;33.90;7.00;;;7.70;99.90;;;;;;5023311;28;20457;-81
2022/02/02 04:08:52;;;;;;;31.00;5.80;;;7.70;99.90;;;;;;5022360;28;20495;-81
2022/02/02 04:11:28;;;;;;;29.30;7.90;;;7.70;99.90;;;;;;5022093;28;20550;-81
2022/02/02 04:15:09;;;;;;;30.83;6.40;;;7.80;99.90;;;;;;5020334;28;20495;-81
2022/02/02 04:54:10;;;;;;;25.40;8.63;;;7.80;99.90;;;;;;5004345;28;20503;-80
2022/02/02 04:56:49;;;;;;;33.17;6.63;;;7.90;99.90;;;;;;5024261;28;20442;-81
2022/02/02 04:59:26;;;;;;;27.67;6.30;;;7.80;99.90;;;;;;5034475;28;20525;-83
2022/02/02 05:05:08;;;;;;;28.40;6.87;;;7.70;99.90;;;;;;5052091;28;20452;-84
2022/02/02 05:07:42;;;;;;;24.53;7.40;;;7.80;99.90;;;;;;5032897;28;20456;-80
2022/02/02 05:10:18;;;;;;;39.50;6.93;;;7.80;99.90;;;;;;5030735;28;20564;-81
2022/02/02 05:21:46;;;;;;;28.47;6.90;;;7.60;99.90;;;;;;5022176;28;20922;-82
2022/02/02 05:41:19;;;;;;;17.47;4.23;;;6.50;99.90;;;;;;5004905;28;20487;-82
2022/02/02 05:43:59;;;;;;;17.63;4.83;;;6.50;99.90;;;;;;4997017;28;20438;-81
2022/02/02 05:49:27;;;;;;;14.03;3.77;;;6.50;99.90;;;;;;5018193;28;20472;-81
2022/02/02 05:51:56;;;;;;;19.83;5.10;;;6.60;99.90;;;;;;5035858;28;20479;-81
2022/02/02 05:54:23;;;;;;;16.60;4.63;;;6.60;99.90;;;;;;5039723;28;20446;-79
2022/02/02 05:56:55;;;;;;;18.43;4.73;;;6.70;99.90;;;;;;5028609;28;20447;-81
2022/02/02 05:59:24;;;;;;;12.07;4.50;;;6.70;99.90;;;;;;5015816;28;20484;-81
2022/02/02 06:01:52;;;;;;;25.83;5.97;;;6.70;99.90;;;;;;5013858;28;20488;-80
2022/02/02 06:04:23;;;;;;;31.57;8.33;;;6.80;99.90;;;;;;5013152;28;20456;-81
2022/02/02 06:06:52;;;;;;;19.90;5.80;;;6.90;99.90;;;;;;5013155;28;21025;-81
2022/02/02 06:09:23;;;;;;;21.07;5.37;;;6.90;99.90;;;;;;5003190;28;20514;-80
2022/02/02 06:11:53;;;;;;;27.70;7.47;;;7.00;99.90;;;;;;5013908;28;20488;-81
2022/02/02 06:14:24;;;;;;;23.83;7.20;;;6.90;99.90;;;;;;5013720;28;20457;-80
2022/02/02 06:16:53;;;;;;;31.33;6.90;;;6.90;99.90;;;;;;5014264;28;20453;-79
2022/02/02 06:19:23;;;;;;;18.73;4.63;;;7.00;99.90;;;;;;5013740;28;20483;-79
2022/02/02 06:21:57;;;;;;;26.70;5.50;;;7.00;99.90;;;;;;5013924;28;20516;-80
2022/02/02 06:24:32;;;;;;;25.10;6.10;;;7.00;99.90;;;;;;5014896;28;20452;-82
2022/02/02 06:27:06;;;;;;;16.37;4.27;;;7.00;99.90;;;;;;5017053;28;20893;-81
2022/02/02 06:29:37;;;;;;;20.80;4.20;;;6.90;99.90;;;;;;5017332;28;20830;-80
2022/02/02 06:32:05;;;;;;;26.27;5.37;;;7.00;99.90;;;;;;5017323;28;20445;-81
2022/02/02 06:34:35;;;;;;;23.80;5.13;;;7.00;99.90;;;;;;5016755;28;20458;-81
2022/02/02 06:37:03;;;;;;;20.70;5.10;;;7.00;99.90;;;;;;5018933;28;20467;-81
2022/02/02 06:39:31;;;;;;;22.47;3.90;;;7.00;99.90;;;;;;5018376;28;20488;-79
2022/02/02 06:42:00;;;;;;;26.70;4.90;;;7.00;99.90;;;;;;4998762;28;20501;-79
2022/02/02 06:44:31;;;;;;;14.40;3.63;;;7.00;99.90;;;;;;4999510;28;20454;-79
2022/02/02 06:46:58;;;;;;;11.33;2.90;;;6.90;99.90;;;;;;4999798;28;20469;-80
2022/02/02 06:49:28;;;;;;;13.17;3.50;;;6.90;99.90;;;;;;4999308;28;20467;-78
2022/02/02 06:52:05;;;;;;;8.70;2.20;;;6.90;99.90;;;;;;5012873;28;20465;-79
2022/02/02 06:54:52;;;;;;;14.03;3.63;;;6.90;99.90;;;;;;5015720;28;20539;-83
2022/02/02 06:57:36;;;;;;;12.90;2.50;;;6.90;99.90;;;;;;5013101;28;20516;-79
2022/02/02 07:00:13;;;;;;;11.20;2.63;;;6.90;99.90;;;;;;5012466;28;20483;-79
2022/02/02 07:02:51;;;;;;;7.83;2.47;;;6.90;99.90;;;;;;5014568;28;20501;-79
2022/02/02 07:05:30;;;;;;;15.00;3.63;;;6.90;99.90;;;;;;4996515;28;20563;-77
2022/02/02 07:08:21;;;;;;;13.37;3.37;;;6.90;99.90;;;;;;5004828;28;20460;-79
2022/02/02 07:13:59;;;;;;;10.50;2.40;;;7.00;99.90;;;;;;5001426;28;20481;-79
2022/02/02 07:16:40;;;;;;;13.20;3.17;;;6.90;99.90;;;;;;5016621;28;20888;-82
2022/02/02 07:19:16;;;;;;;14.10;3.10;;;6.90;99.90;;;;;;5016571;28;20634;-79
2022/02/02 07:27:50;;;;;;;20.23;3.63;;;6.90;99.90;;;;;;5015269;28;20448;-78
2022/02/02 07:30:44;;;;;;;17.10;3.93;;;6.80;99.90;;;;;;5015575;28;20512;-79
2022/02/02 07:33:16;;;;;;;20.30;3.80;;;6.80;99.90;;;;;;5014564;28;21012;-82
2022/02/02 07:35:54;;;;;;;11.83;4.33;;;6.90;99.90;;;;;;5007322;28;20469;-82
2022/02/02 07:38:27;;;;;;;15.10;4.10;;;6.90;99.90;;;;;;5008152;28;20454;-79
2022/02/02 07:41:00;;;;;;;16.37;3.63;;;7.00;99.90;;;;;;5004976;28;20464;-81
2022/02/02 07:43:31;;;;;;;12.27;3.20;;;7.00;99.90;;;;;;5008448;28;20587;-80
2022/02/02 07:46:03;;;;;;;15.10;3.07;;;7.10;99.90;;;;;;5002275;28;20463;-79
2022/02/02 07:48:36;;;;;;;16.70;3.57;;;7.00;99.90;;;;;;5007184;28;20496;-78
2022/02/02 07:51:03;;;;;;;12.63;3.13;;;7.10;99.90;;;;;;5011756;28;20547;-81
2022/02/02 07:53:37;;;;;;;13.30;3.60;;;7.20;99.90;;;;;;5012062;28;20461;-80
2022/02/02 07:56:10;;;;;;;14.13;2.70;;;7.20;99.90;;;;;;5005468;28;20509;-81
2022/02/02 07:58:44;;;;;;;21.80;3.90;;;7.30;99.90;;;;;;5007602;28;20466;-83
2022/02/02 08:01:15;;;;;;;19.47;3.83;;;7.30;99.90;;;;;;5003852;28;20471;-82
2022/02/02 08:03:50;;;;;;;16.47;3.17;;;7.30;99.90;;;;;;5013841;28;20539;-79
2022/02/02 08:06:25;;;;;;;15.07;4.80;;;7.30;99.90;;;;;;5020975;28;20467;-78
2022/02/02 08:08:52;;;;;;;18.63;5.37;;;7.40;99.90;;;;;;5010329;28;20502;-81
2022/02/02 08:11:28;;;;;;;19.57;4.90;;;7.40;99.90;;;;;;5018392;28;20461;-79
2022/02/02 08:14:00;;;;;;;14.93;4.53;;;7.40;99.90;;;;;;5007917;28;20480;-79
2022/02/02 08:16:30;;;;;;;26.07;5.40;;;7.40;99.90;;;;;;5008746;28;20980;-80
2022/02/02 08:18:57;;;;;;;22.77;5.50;;;7.40;99.90;;;;;;5007872;28;20536;-79
2022/02/02 08:21:24;;;;;;;19.60;4.80;;;7.40;99.90;;;;;;5000513;28;20544;-80
2022/02/02 08:23:51;;;;;;;19.33;4.87;;;7.40;99.90;;;;;;5016113;28;20499;-80
2022/02/02 08:26:18;;;;;;;22.77;4.73;;;7.50;99.90;;;;;;5013241;28;20460;-80
2022/02/02 08:28:46;;;;;;;21.53;5.13;;;7.50;99.90;;;;;;5012676;28;20484;-80
2022/02/02 08:31:14;;;;;;;21.57;5.57;;;7.70;99.90;;;;;;5016254;28;20977;-79
2022/02/02 08:33:46;;;;;;;25.27;4.93;;;7.70;99.90;;;;;;5015580;28;20449;-81
2022/02/02 08:36:16;;;;;;;19.37;5.27;;;7.70;99.90;;;;;;5014159;28;20481;-80
2022/02/02 08:39:00;;;;;;;14.57;3.97;;;7.80;99.90;;;;;;5015017;28;20481;-81
2022/02/02 08:41:31;;;;;;;22.83;4.97;;;7.90;99.90;;;;;;5014337;28;20970;-81
2022/02/02 08:44:02;;;;;;;22.90;4.13;;;8.10;99.90;;;;;;5016449;28;20551;-79
2022/02/02 08:46:33;;;;;;;18.20;3.40;;;8.30;99.90;;;;;;5016919;28;20454;-79
2022/02/02 08:49:04;;;;;;;17.23;4.00;;;8.50;99.90;;;;;;5016616;28;20508;-78
2022/02/02 08:51:36;;;;;;;23.50;4.53;;;8.60;99.90;;;;;;5016786;28;20536;-80
2022/02/02 08:54:14;;;;;;;20.30;4.03;;;8.70;99.90;;;;;;5016293;28;20458;-79
2022/02/02 08:59:26;;;;;;;22.67;4.97;;;8.70;99.90;;;;;;5008309;28;20490;-80
2022/02/02 09:01:55;;;;;;;12.70;4.10;;;8.80;99.90;;;;;;5009768;28;20450;-80
2022/02/02 09:07:08;;;;;;;19.60;4.43;;;8.90;99.90;;;;;;5018846;28;20461;-81
2022/02/02 09:09:54;;;;;;;15.23;3.70;;;8.90;99.90;;;;;;5018765;28;20561;-81
2022/02/02 09:23:33;;;;;;;17.27;4.60;;;8.90;99.90;;;;;;4973991;28;20553;-80
2022/02/02 09:26:24;;;;;;;25.97;5.20;;;8.90;99.90;;;;;;4974354;28;20494;-78
2022/02/02 09:31:50;;;;;;;16.10;4.00;;;8.90;99.90;;;;;;5015071;28;20445;-78
2022/02/02 09:34:21;;;;;;;21.80;7.07;;;9.10;99.90;;;;;;5016527;28;20478;-79
2022/02/02 09:36:50;;;;;;;12.40;4.40;;;9.30;99.90;;;;;;5015371;28;20449;-79
2022/02/02 09:39:21;;;;;;;27.20;5.10;;;9.50;99.90;;;;;;5016797;28;21001;-78
2022/02/02 09:41:50;;;;;;;19.53;4.37;;;9.60;99.90;;;;;;5015928;28;20490;-79
2022/02/02 09:44:21;;;;;;;18.93;4.10;;;9.70;99.90;;;;;;5015550;28;20585;-80
2022/02/02 09:46:56;;;;;;;23.97;5.70;;;9.70;99.90;;;;;;5016507;28;20462;-79
2022/02/02 09:49:29;;;;;;;20.10;5.10;;;9.90;99.90;;;;;;5002744;28;20481;-80
2022/02/02 09:52:02;;;;;;;21.90;4.90;;;10.10;99.90;;;;;;5015860;28;20509;-81
2022/02/02 09:54:35;;;;;;;14.40;4.20;;;10.00;99.90;;;;;;5015429;28;20460;-80
2022/02/02 09:59:58;;;;;;;17.37;4.83;;;9.60;99.90;;;;;;5014671;28;20467;-81
2022/02/02 10:02:48;;;;;;;24.07;4.47;;;9.60;99.90;;;;;;5014879;28;20486;-80
2022/02/02 10:05:26;;;;;;;14.80;4.47;;;9.50;99.90;;;;;;5015188;28;20459;-80
2022/02/02 10:11:08;;;;;;;23.50;5.53;;;9.60;99.90;;;;;;4938122;28;20449;-80
2022/02/02 10:13:52;;;;;;;20.37;4.17;;;9.80;99.90;;;;;;5011866;28;20444;-81
2022/02/02 10:16:21;;;;;;;22.00;4.70;;;10.10;99.90;;;;;;5017653;28;20449;-78
2022/02/02 10:18:49;;;;;;;18.70;4.60;;;10.40;99.90;;;;;;5011974;28;20554;-80
2022/02/02 10:21:30;;;;;;;16.00;4.67;;;10.70;99.90;;;;;;5013089;28;20508;-80
2022/02/02 10:23:59;;;;;;;16.97;4.87;;;11.00;99.90;;;;;;5010417;28;20571;-81
2022/02/02 10:26:26;;;;;;;16.47;4.50;;;11.10;99.90;;;;;;5008042;28;20492;-80
2022/02/02 10:28:53;;;;;;;20.80;5.63;;;11.40;99.90;;;;;;5014690;28;20479;-80
2022/02/02 10:31:20;;;;;;;18.00;5.20;;;11.60;99.90;;;;;;5010499;28;20458;-80
2022/02/02 10:33:47;;;;;;;16.17;4.30;;;11.60;99.90;;;;;;5007742;28;20491;-80
2022/02/02 10:36:19;;;;;;;23.93;5.10;;;11.50;99.90;;;;;;5003190;28;20483;-80
2022/02/02 10:39:05;;;;;;;13.93;4.10;;;11.10;99.90;;;;;;5009581;28;20500;-81
2022/02/02 10:41:44;;;;;;;16.60;4.30;;;11.00;99.90;;;;;;5012760;28;20491;-80
2022/02/02 10:44:18;;;;;;;15.80;3.93;;;10.80;99.90;;;;;;5013545;28;20493;-81
2022/02/02 10:46:54;;;;;;;20.47;4.27;;;11.00;99.90;;;;;;5014634;28;20969;-79
2022/02/02 10:49:30;;;;;;;17.00;4.60;;;12.10;99.90;;;;;;5013451;28;20504;-81
2022/02/02 10:52:03;;;;;;;17.90;4.20;;;13.10;99.90;;;;;;5014873;28;20543;-83
2022/02/02 10:54:37;;;;;;;16.80;4.20;;;13.50;99.90;;;;;;5016528;28;20504;-83
2022/02/02 10:57:12;;;;;;;15.03;3.90;;;13.40;99.90;;;;;;5020877;28;20508;-83
2022/02/02 11:00:05;;;;;;;12.73;3.70;;;13.30;99.90;;;;;;5013999;28;20477;-83
2022/02/02 11:08:04;;;;;;;19.17;4.87;;;12.80;99.90;;;;;;5021623;28;20483;-85
2022/02/02 11:10:33;;;;;;;10.00;3.37;;;12.90;99.90;;;;;;5023544;28;20503;-83
2022/02/02 11:13:02;;;;;;;14.87;3.33;;;13.00;99.90;;;;;;5021648;28;20454;-84
2022/02/02 11:15:33;;;;;;;15.83;4.20;;;13.40;99.90;;;;;;5024475;28;20464;-83
2022/02/02 11:18:08;;;;;;;11.87;4.70;;;14.00;99.90;;;;;;5023908;28;20556;-82
2022/02/02 11:20:37;;;;;;;17.23;4.90;;;14.20;99.90;;;;;;5021882;28;20539;-87
2022/02/02 11:23:06;;;;;;;10.20;3.70;;;14.50;99.90;;;;;;5023613;28;20506;-83
2022/02/02 11:25:42;;;;;;;14.07;3.50;;;15.50;99.90;;;;;;5024437;28;20516;-84
2022/02/02 11:28:29;;;;;;;10.93;3.50;;;16.00;99.90;;;;;;5018153;28;20546;-81
2022/02/02 11:31:07;;;;;;;13.90;3.63;;;16.60;99.90;;;;;;5020040;28;20561;-85
2022/02/02 11:33:44;;;;;;;11.80;3.60;;;16.60;99.90;;;;;;5002043;28;20451;-82
2022/02/02 11:36:25;;;;;;;9.20;2.87;;;16.10;99.90;;;;;;5030031;28;20904;-85
2022/02/02 11:38:55;;;;;;;8.57;3.30;;;15.30;99.90;;;;;;5018246;28;20478;-85
2022/02/02 11:41:55;;;;;;;13.90;3.80;;;13.90;99.90;;;;;;5001952;28;20868;-84
2022/02/02 11:44:40;;;;;;;13.13;3.33;;;14.00;99.90;;;;;;5016579;28;20485;-82
2022/02/02 11:47:19;;;;;;;17.60;3.87;;;13.10;99.90;;;;;;5018230;28;20879;-83
2022/02/02 11:49:55;;;;;;;15.60;3.90;;;12.40;99.90;;;;;;5014527;28;20535;-83
2022/02/02 11:52:34;;;;;;;15.67;5.23;;;12.20;99.90;;;;;;5021990;28;20459;-80
2022/02/02 11:55:01;;;;;;;13.50;3.10;;;12.00;99.90;;;;;;5019068;28;21003;-83
2022/02/02 11:57:36;;;;;;;15.33;3.90;;;12.00;99.90;;;;;;5020003;28;20466;-82
2022/02/02 12:00:18;;;;;;;13.33;4.03;;;11.90;99.90;;;;;;5021009;28;20985;-82
2022/02/02 12:05:54;;;;;;;16.20;3.30;;;11.70;99.90;;;;;;5011072;28;20468;-82
2022/02/02 12:08:37;;;;;;;15.90;5.33;;;11.70;99.90;;;;;;5015814;28;20499;-82
2022/02/02 12:11:27;;;;;;;13.50;3.30;;;11.40;99.90;;;;;;5018037;28;20444;-82
2022/02/02 12:47:46;;;;;;;14.70;3.70;;;11.50;99.90;;;;;;5020079;28;20444;-83
2022/02/02 12:53:32;;;;;;;12.50;3.50;;;11.70;99.90;;;;;;5024085;28;20476;-82
2022/02/02 12:53:47;;;;;;;10.73;3.93;;;11.80;99.90;;;;;;5023494;28;20507;-83
2022/02/02 12:56:31;;;;;;;13.47;3.23;;;12.20;99.90;;;;;;5025351;28;20455;-83
2022/02/02 12:59:35;;;;;;;11.73;3.10;;;13.00;99.90;;;;;;5025805;28;20486;-84
2022/02/02 13:02:06;;;;;;;16.63;3.50;;;13.20;99.90;;;;;;5024438;28;20449;-84
2022/02/02 13:04:34;;;;;;;13.90;3.50;;;13.40;99.90;;;;;;5021458;28;21004;-82
2022/02/02 13:07:14;;;;;;;21.50;5.53;;;13.60;99.90;;;;;;5025800;28;20509;-83
2022/02/02 13:09:43;;;;;;;12.67;3.80;;;13.40;99.90;;;;;;5025270;28;20466;-83
2022/02/02 13:12:25;;;;;;;16.80;4.43;;;13.10;99.90;;;;;;5023806;28;20900;-83
2022/02/02 13:20:49;;;;;;;15.13;4.40;;;13.70;99.90;;;;;;5020675;28;20553;-84
2022/02/02 13:23:22;;;;;;;14.20;4.70;;;13.70;99.90;;;;;;5020763;28;20873;-83
2022/02/02 13:26:01;;;;;;;14.10;4.53;;;15.00;99.90;;;;;;5019632;28;20468;-83
2022/02/02 13:28:47;;;;;;;19.17;5.00;;;16.00;99.90;;;;;;5018179;28;20458;-84
2022/02/02 13:31:45;;;;;;;10.17;3.43;;;16.90;99.90;;;;;;5019249;28;20558;-83
2022/02/02 13:34:21;;;;;;;14.13;3.93;;;16.50;99.90;;;;;;5026456;28;20454;-84
2022/02/02 13:42:42;;;;;;;17.20;4.43;;;17.10;99.90;;;;;;5005845;28;20441;-84
2022/02/02 13:45:40;;;;;;;18.53;3.80;;;17.10;99.90;;;;;;5009574;28;20494;-84
2022/02/02 13:48:32;;;;;;;12.37;3.50;;;17.30;99.90;;;;;;5009540;28;20450;-83
2022/02/02 13:54:15;;;;;;;10.40;3.43;;;17.30;99.90;;;;;;5028742;28;20430;-85
2022/02/02 13:59:56;;;;;;;11.30;3.00;;;16.60;99.90;;;;;;5027670;28;20515;-85
2022/02/02 14:08:57;;;;;;;13.27;3.17;;;14.50;99.90;;;;;;5007471;28;20522;-83
2022/02/02 14:11:06;;;;;;;13.83;4.97;;;13.90;99.90;;;;;;5021254;28;20440;-83
2022/02/02 14:32:43;;;;;;;10.60;3.10;;;10.40;99.90;;;;;;5001241;28;20556;-84
2022/02/02 14:35:14;;;;;;;12.40;3.93;;;10.10;99.90;;;;;;5012098;28;20463;-86
2022/02/02 14:37:43;;;;;;;10.93;3.20;;;10.00;99.90;;;;;;5020476;28;20451;-82
2022/02/02 14:40:19;;;;;;;14.83;3.13;;;9.80;99.90;;;;;;5018375;28;20546;-81
2022/02/02 14:42:51;;;;;;;16.63;3.50;;;9.60;99.90;;;;;;5016474;28;20452;-83
2022/02/02 14:45:21;;;;;;;13.43;2.97;;;9.50;99.90;;;;;;5005037;28;21180;-83
2022/02/02 14:47:52;;;;;;;13.90;3.90;;;9.50;99.90;;;;;;5016389;28;20483;-82
2022/02/02 14:50:25;;;;;;;14.93;3.10;;;9.50;99.90;;;;;;5016829;28;20479;-82
2022/02/02 14:53:05;;;;;;;17.23;4.00;;;9.50;99.90;;;;;;5016305;28;20471;-83
2022/02/02 15:16:46;;;;;;;12.27;3.27;;;9.40;99.90;;;;;;4990646;28;20463;-84
2022/02/02 15:24:13;;;;;;;17.87;2.80;;;9.00;99.90;;;;;;5048310;22;20489;-83
2022/02/02 15:29:32;;;;;;;11.13;2.73;;;9.20;99.90;;;;;;5033640;28;20532;-82
2022/02/02 15:32:00;;;;;;;10.80;3.10;;;9.10;99.90;;;;;;5034269;28;20560;-84
2022/02/02 15:34:33;;;;;;;11.07;2.80;;;9.10;99.90;;;;;;5034706;28;20546;-83
2022/02/02 15:39:58;;;;;;;12.63;3.00;;;9.20;99.90;;;;;;5033279;28;20451;-83
2022/02/02 15:59:04;;;;;;;14.20;3.30;;;8.70;99.90;;;;;;5023094;28;20448;-83
2022/02/02 16:04:23;;;;;;;19.43;2.50;;;8.40;99.90;;;;;;5036232;28;20476;-83
2022/02/02 16:06:50;;;;;;;12.17;3.27;;;8.30;99.90;;;;;;5036314;28;20465;-83
2022/02/02 16:09:23;;;;;;;18.47;3.20;;;8.30;99.90;;;;;;5033531;28;20470;-83
2022/02/02 16:12:05;;;;;;;16.70;3.80;;;8.10;99.90;;;;;;5025403;28;20485;-83
2022/02/02 16:14:35;;;;;;;12.50;2.77;;;8.10;99.90;;;;;;5026826;28;20472;-82
2022/02/02 16:17:13;;;;;;;16.20;3.03;;;8.00;99.90;;;;;;5026446;28;20460;-82
2022/02/02 16:24:43;;;;;;;12.37;2.67;;;7.90;99.90;;;;;;5027533;28;20446;-83
2022/02/02 16:25:31;;;;;;;8.80;3.00;;;7.60;99.90;;;;;;5033531;28;20488;-83
2022/02/02 16:36:19;;;;;;;12.63;2.93;;;7.30;99.90;;;;;;5031450;28;20417;-83
2022/02/02 16:38:57;;;;;;;15.50;4.53;;;7.20;99.90;;;;;;5031236;28;20469;-83
2022/02/02 16:44:08;;;;;;;10.37;2.77;;;7.10;99.90;;;;;;5034020;28;20564;-82
2022/02/02 16:46:35;;;;;;;11.10;2.90;;;6.90;99.90;;;;;;5035996;28;20527;-85
2022/02/02 16:49:02;;;;;;;14.47;3.27;;;6.90;99.90;;;;;;5026769;28;20475;-83
2022/02/02 16:51:30;;;;;;;9.30;2.97;;;6.80;99.90;;;;;;5028032;28;20981;-83
2022/02/02 16:54:00;;;;;;;11.73;4.40;;;6.70;99.90;;;;;;5018162;28;20877;-83
2022/02/02 16:56:37;;;;;;;14.03;4.70;;;6.70;99.90;;;;;;5034002;28;20468;-82
2022/02/02 17:32:05;;;;;;;14.17;5.13;;;6.10;99.90;;;;;;5017356;28;20748;-82
2022/02/02 17:34:39;;;;;;;15.13;4.77;;;6.00;99.90;;;;;;5029448;28;20891;-81
2022/02/02 17:37:20;;;;;;;11.00;5.20;;;6.00;99.90;;;;;;5025949;28;20448;-83
2022/02/02 17:39:58;;;;;;;17.80;5.27;;;6.00;99.90;;;;;;5031607;28;20845;-82
2022/02/02 17:42:52;;;;;;;17.17;4.93;;;6.10;99.90;;;;;;5026934;28;20830;-80
2022/02/02 17:57:23;;;;;;;11.23;4.73;;;6.50;99.90;;;;;;5026795;28;20467;-83
2022/02/02 18:18:58;;;;;;;13.20;5.00;;;6.30;99.90;;;;;;5025328;28;20439;-82
2022/02/02 18:21:27;;;;;;;13.70;4.03;;;6.30;99.90;;;;;;5025320;28;21000;-83
2022/02/02 18:24:00;;;;;;;11.13;4.67;;;6.30;99.90;;;;;;5032834;28;20485;-83
2022/02/02 18:26:32;;;;;;;11.20;4.33;;;6.30;99.90;;;;;;5026203;28;20457;-83
2022/02/02 18:29:06;;;;;;;19.37;5.00;;;6.20;99.90;;;;;;5035126;28;20856;-83
2022/02/02 18:31:52;;;;;;;20.20;4.20;;;6.20;99.90;;;;;;5032576;28;20460;-84
2022/02/02 18:34:30;;;;;;;12.20;4.07;;;6.10;99.90;;;;;;5035274;28;20471;-82
2022/02/02 18:37:14;;;;;;;15.93;4.77;;;6.10;99.90;;;;;;5025185;28;20838;-82
2022/02/02 18:48:18;;;;;;;11.10;4.43;;;6.20;99.90;;;;;;5026628;28;20936;-84
2022/02/02 18:54:05;;;;;;;13.73;4.80;;;6.20;99.90;;;;;;5030073;28;20476;-84
2022/02/02 18:56:58;;;;;;;12.93;4.57;;;6.20;99.90;;;;;;5029309;28;20468;-84
2022/02/02 19:05:33;;;;;;;13.57;5.20;;;6.20;99.90;;;;;;5025906;28;20546;-84
2022/02/02 20:02:10;;;;;;;13.73;5.33;;;6.80;99.90;;;;;;5064547;28;20426;-85
2022/02/02 20:04:51;;;;;;;14.17;5.07;;;6.90;99.90;;;;;;5073371;28;20537;-84
2022/02/02 20:07:40;;;;;;;14.13;5.13;;;7.00;99.90;;;;;;5075403;28;20455;-84
2022/02/02 20:10:39;;;;;;;19.83;7.10;;;7.10;99.90;;;;;;5089691;28;20479;-85
2022/02/02 20:13:07;;;;;;;22.13;7.40;;;7.30;99.90;;;;;;5088321;28;20506;-83
2022/02/02 20:15:39;;;;;;;22.87;6.77;;;7.40;99.90;;;;;;5076837;28;20459;-82
2022/02/02 20:18:44;;;;;;;13.13;5.90;;;7.40;99.90;;;;;;5069974;28;20452;-81
2022/02/02 20:21:17;;;;;;;14.17;5.50;;;7.40;99.90;;;;;;5064758;28;20580;-85
2022/02/02 20:26:28;;;;;;;16.17;6.77;;;7.50;99.90;;;;;;5070316;28;20453;-83
2022/02/02 20:29:01;;;;;;;17.90;6.67;;;7.50;99.90;;;;;;5058592;28;20468;-81
2022/02/02 20:31:33;;;;;;;17.27;6.03;;;7.60;99.90;;;;;;5055389;28;20448;-81
2022/02/02 20:34:01;;;;;;;15.40;6.23;;;7.60;99.90;;;;;;5054670;28;20504;-81
2022/02/02 20:36:28;;;;;;;14.83;5.70;;;7.70;99.90;;;;;;5053145;28;20456;-81
2022/02/02 20:39:09;;;;;;;18.53;5.53;;;7.80;99.90;;;;;;5055706;28;20540;-80
2022/02/02 20:41:38;;;;;;;20.27;6.40;;;7.80;99.90;;;;;;5054662;28;20450;-82
2022/02/02 20:44:17;;;;;;;17.90;7.20;;;8.00;99.90;;;;;;5048918;28;20479;-80
2022/02/02 20:47:04;;;;;;;16.33;6.17;;;8.00;99.90;;;;;;5054349;28;20967;-81
2022/02/02 21:01:10;;;;;;;21.47;8.60;;;8.10;99.90;;;;;;5019929;28;20438;-81
2022/02/02 21:03:43;;;;;;;19.17;7.53;;;8.10;99.90;;;;;;5049356;28;20462;-80
2022/02/02 21:06:25;;;;;;;23.57;7.67;;;8.30;99.90;;;;;;5054746;28;20816;-81
2022/02/02 21:09:08;;;;;;;22.53;8.87;;;8.30;99.90;;;;;;5051686;28;20810;-80
2022/02/02 21:11:55;;;;;;;16.07;8.07;;;8.30;99.90;;;;;;5053599;28;20486;-81
2022/02/02 21:14:26;;;;;;;18.33;8.67;;;8.30;99.90;;;;;;5046309;28;20537;-81
2022/02/02 21:16:52;;;;;;;21.47;8.80;;;8.30;99.90;;;;;;5045115;28;20461;-80
2022/02/02 21:19:29;;;;;;;24.40;9.83;;;8.30;99.90;;;;;;5041425;28;20446;-79
2022/02/02 21:22:02;;;;;;;17.83;9.70;;;8.40;99.90;;;;;;5054823;28;20948;-77
2022/02/02 21:24:50;;;;;;;17.50;9.50;;;8.40;99.90;;;;;;5048569;28;20486;-79
2022/02/02 21:27:25;;;;;;;26.03;11.50;;;8.40;99.90;;;;;;5041840;28;20460;-78